createdAt,value
2023-12-04T00:09:02.541Z,90.99
2023-12-04T00:18:34.335Z,91.00
2023-12-04T00:22:04.117Z,90.93
2023-12-04T00:25:21.532Z,90.88
2023-12-04T00:28:39.472Z,90.74
2023-12-04T00:32:23.935Z,90.80
2023-12-04T00:36:07.758Z,90.81
2023-12-04T00:39:50.957Z,90.79
2023-12-04T00:43:30.512Z,90.87
2023-12-04T00:47:13.898Z,91.00
2023-12-04T00:50:54.202Z,90.85
2023-12-04T00:54:40.739Z,90.73
2023-12-04T00:58:20.848Z,90.54
2023-12-04T01:02:00.976Z,90.30
2023-12-04T01:05:41.010Z,89.93
2023-12-04T01:09:24.905Z,89.95
2023-12-04T01:13:08.009Z,90.00
2023-12-04T01:16:54.076Z,90.03
2023-12-04T01:20:34.030Z,90.10
2023-12-04T01:24:14.902Z,90.06
2023-12-04T01:27:55.020Z,89.98
2023-12-04T01:31:34.530Z,89.92
2023-12-04T01:35:37.647Z,89.94
2023-12-04T01:39:21.553Z,89.90
2023-12-04T01:43:02.807Z,89.87
2023-12-04T01:46:41.893Z,89.80
2023-12-04T01:50:21.836Z,89.80
2023-12-04T01:54:01.683Z,89.73
2023-12-04T01:57:42.764Z,89.63
2023-12-04T02:01:22.477Z,89.57
2023-12-04T02:05:05.728Z,89.78
2023-12-04T02:08:45.709Z,89.76
2023-12-04T02:12:29.471Z,89.63
2023-12-04T02:16:14.343Z,89.70
2023-12-04T02:19:55.794Z,89.76
2023-12-04T02:23:44.659Z,89.89
2023-12-04T02:27:44.554Z,89.89
2023-12-04T02:31:25.796Z,89.79
2023-12-04T02:35:02.536Z,89.75
2023-12-04T02:38:49.217Z,89.90
2023-12-04T02:42:09.515Z,89.90
2023-12-04T02:45:31.129Z,89.90
2023-12-04T02:49:09.694Z,90.00
2023-12-04T02:52:45.150Z,90.10
2023-12-04T02:56:05.558Z,90.10
2023-12-04T02:59:45.856Z,90.14
2023-12-04T03:03:30.539Z,90.09
2023-12-04T03:07:13.996Z,89.91
2023-12-04T03:10:53.596Z,89.86
2023-12-04T03:14:34.783Z,89.78
2023-12-04T03:18:15.548Z,89.71
2023-12-04T03:21:55.383Z,89.70
2023-12-04T03:25:35.830Z,89.70
2023-12-04T03:29:18.322Z,89.74
2023-12-04T03:32:58.578Z,89.76
2023-12-04T03:36:38.425Z,89.80
2023-12-04T03:40:22.730Z,89.80
2023-12-04T03:44:02.362Z,89.79
2023-12-04T03:47:42.760Z,89.73
2023-12-04T03:51:23.408Z,89.79
2023-12-04T03:58:44.459Z,89.87
2023-12-04T04:02:02.983Z,89.86
2023-12-04T04:05:20.777Z,89.89
2023-12-04T04:08:57.569Z,89.90
2023-12-04T04:12:15.842Z,89.97
2023-12-04T04:15:33.420Z,90.00
2023-12-04T04:19:15.674Z,90.00
2023-12-04T04:22:58.223Z,89.91
2023-12-04T04:26:38.120Z,89.90
2023-12-04T04:30:21.666Z,89.85
2023-12-04T04:34:11.700Z,89.81
2023-12-04T04:37:55.093Z,89.78
2023-12-04T04:41:22.800Z,89.79
2023-12-04T04:45:06.682Z,89.70
2023-12-04T04:48:49.823Z,89.70
2023-12-04T04:52:31.850Z,89.70
2023-12-04T04:56:09.543Z,89.70
2023-12-04T04:59:53.655Z,89.80
2023-12-04T05:03:36.689Z,89.87
2023-12-04T05:07:19.747Z,89.90
2023-12-04T05:10:59.976Z,89.91
2023-12-04T05:14:46.662Z,89.87
2023-12-04T05:18:33.975Z,89.81
2023-12-04T05:22:13.553Z,89.74
2023-12-04T05:25:58.384Z,89.61
2023-12-04T05:29:38.326Z,89.55
2023-12-04T05:33:18.170Z,89.50
2023-12-04T05:36:56.942Z,89.40
2023-12-04T05:40:47.580Z,89.50
2023-12-04T05:44:27.446Z,89.45
2023-12-04T05:48:07.402Z,89.44
2023-12-04T05:55:46.533Z,89.39
2023-12-04T05:59:04.211Z,89.50
2023-12-04T06:01:39.386Z,89.51
2023-12-04T06:04:07.027Z,89.50
2023-12-04T06:06:35.062Z,89.50
2023-12-04T06:09:02.771Z,89.55
2023-12-04T06:11:30.329Z,89.53
2023-12-04T06:13:57.888Z,89.50
2023-12-04T06:16:25.661Z,89.51
2023-12-04T06:18:53.807Z,89.52
2023-12-04T06:21:21.596Z,89.56
2023-12-04T06:23:49.716Z,89.60
2023-12-04T06:26:18.459Z,89.50
2023-12-04T06:28:47.048Z,89.50
2023-12-04T06:31:15.386Z,89.48
2023-12-04T06:33:43.673Z,89.41
2023-12-04T06:36:14.409Z,89.43
2023-12-04T06:38:42.412Z,89.49
2023-12-04T06:41:11.854Z,89.48
2023-12-04T06:43:39.961Z,89.49
2023-12-04T06:46:08.813Z,89.44
2023-12-04T06:48:36.980Z,89.33
2023-12-04T06:51:05.329Z,89.38
2023-12-04T06:53:33.017Z,89.52
2023-12-04T06:56:00.956Z,89.62
2023-12-04T06:58:28.567Z,89.69
2023-12-04T07:00:56.599Z,89.67
2023-12-04T07:03:24.311Z,89.61
2023-12-04T07:05:52.245Z,89.57
2023-12-04T07:08:19.884Z,89.60
2023-12-04T07:10:47.594Z,89.59
2023-12-04T07:13:15.358Z,89.52
2023-12-04T07:15:42.988Z,89.50
2023-12-04T07:18:11.042Z,89.58
2023-12-04T07:20:38.846Z,89.51
2023-12-04T07:23:06.692Z,89.48
2023-12-04T07:25:34.457Z,89.41
2023-12-04T07:28:02.128Z,89.36
2023-12-04T07:30:29.881Z,89.30
2023-12-04T07:32:57.597Z,89.30
2023-12-04T07:35:27.487Z,89.27
2023-12-04T07:37:55.013Z,89.22
2023-12-04T07:40:23.992Z,89.20
2023-12-04T07:42:52.117Z,89.23
2023-12-04T07:45:19.986Z,89.34
2023-12-04T07:47:48.082Z,89.48
2023-12-04T07:50:16.306Z,89.50
2023-12-04T07:52:44.373Z,89.60
2023-12-04T07:55:12.286Z,89.61
2023-12-04T07:57:40.548Z,89.62
2023-12-04T08:00:09.356Z,89.61
2023-12-04T08:02:37.302Z,89.65
2023-12-04T08:05:05.268Z,89.70
2023-12-04T08:07:33.020Z,89.69
2023-12-04T08:10:00.584Z,89.68
2023-12-04T08:12:28.015Z,89.60
2023-12-04T08:14:55.446Z,89.60
2023-12-04T08:17:22.819Z,89.60
2023-12-04T08:19:53.042Z,89.60
2023-12-04T08:22:20.965Z,89.58
2023-12-04T08:24:48.324Z,89.53
2023-12-04T08:27:15.548Z,89.52
2023-12-04T08:29:42.818Z,89.50
2023-12-04T08:32:10.119Z,89.49
2023-12-04T08:34:37.979Z,89.50
2023-12-04T08:37:05.644Z,89.45
2023-12-04T08:39:33.067Z,89.40
2023-12-04T08:42:03.555Z,89.40
2023-12-04T08:44:36.189Z,89.40
2023-12-04T08:47:04.668Z,89.37
2023-12-04T08:49:39.638Z,89.25
2023-12-04T08:52:11.804Z,89.23
2023-12-04T08:54:43.405Z,89.29
2023-12-04T08:57:11.160Z,89.23
2023-12-04T08:59:38.816Z,89.19
2023-12-04T09:02:06.945Z,89.11
2023-12-04T09:04:35.271Z,89.12
2023-12-04T09:08:26.245Z,89.10
2023-12-04T09:09:51.424Z,88.99
2023-12-04T09:12:19.169Z,88.87
2023-12-04T09:14:46.839Z,88.82
2023-12-04T09:17:17.236Z,88.80
2023-12-04T09:19:44.824Z,88.74
2023-12-04T09:22:17.547Z,88.66
2023-12-04T09:24:47.389Z,88.58
2023-12-04T09:27:14.890Z,88.52
2023-12-04T09:29:43.134Z,88.40
2023-12-04T09:32:11.355Z,88.32
2023-12-04T09:34:39.069Z,88.15
2023-12-04T09:37:11.239Z,88.07
2023-12-04T09:39:41.225Z,87.97
2023-12-04T09:42:09.967Z,87.89
2023-12-04T09:44:38.764Z,87.77
2023-12-04T09:47:08.844Z,87.71
2023-12-04T09:49:36.446Z,87.58
2023-12-04T09:52:05.826Z,87.50
2023-12-04T09:54:36.629Z,87.40
2023-12-04T09:57:09.735Z,87.20
2023-12-04T09:59:37.656Z,87.13
2023-12-04T10:02:07.397Z,87.04
2023-12-04T10:04:35.905Z,86.92
2023-12-04T10:07:05.133Z,86.90
2023-12-04T10:09:32.582Z,86.80
2023-12-04T10:12:00.832Z,86.41
2023-12-04T10:14:28.342Z,86.41
2023-12-04T10:16:55.657Z,86.21
2023-12-04T10:19:32.394Z,86.13
2023-12-04T10:22:01.194Z,86.06
2023-12-04T10:24:37.909Z,85.85
2023-12-04T10:27:11.186Z,85.62
2023-12-04T10:29:48.694Z,85.38
2023-12-04T10:32:23.150Z,85.13
2023-12-04T10:34:51.689Z,84.94
2023-12-04T10:37:20.752Z,84.53
2023-12-04T10:39:50.763Z,84.45
2023-12-04T10:42:32.303Z,84.32
2023-12-04T10:45:00.997Z,84.10
2023-12-04T10:47:33.896Z,83.97
2023-12-04T10:50:05.433Z,83.83
2023-12-04T10:52:33.382Z,83.68
2023-12-04T10:55:03.955Z,83.64
2023-12-04T10:57:39.719Z,83.42
2023-12-04T11:00:09.593Z,83.22
2023-12-04T11:02:48.083Z,82.85
2023-12-04T11:05:23.817Z,82.55
2023-12-04T11:08:19.002Z,82.28
2023-12-04T11:10:59.745Z,82.09
2023-12-04T11:13:38.429Z,81.90
2023-12-04T11:16:24.134Z,81.70
2023-12-04T11:19:20.259Z,81.51
2023-12-04T11:21:49.077Z,81.26
2023-12-04T11:24:19.299Z,81.16
2023-12-04T11:26:48.060Z,80.87
2023-12-04T11:29:17.057Z,80.71
2023-12-04T11:31:44.821Z,80.62
2023-12-04T11:34:13.707Z,80.45
2023-12-04T11:36:41.835Z,80.17
2023-12-04T11:39:12.894Z,79.87
2023-12-04T11:41:44.386Z,79.74
2023-12-04T11:44:15.864Z,79.49
2023-12-04T11:46:58.475Z,79.68
2023-12-04T11:49:31.339Z,79.51
2023-12-04T11:52:05.588Z,79.24
2023-12-04T11:55:08.594Z,79.22
2023-12-04T11:57:39.034Z,79.07
2023-12-04T12:00:21.700Z,78.94
2023-12-04T12:03:16.003Z,78.81
2023-12-04T12:05:44.853Z,78.76
2023-12-04T12:08:12.629Z,78.82
2023-12-04T12:10:40.399Z,78.90
2023-12-04T12:13:08.257Z,78.76
2023-12-04T12:15:36.186Z,78.70
2023-12-04T12:18:07.045Z,78.63
2023-12-04T12:20:38.631Z,78.47
2023-12-04T12:23:06.699Z,78.57
2023-12-04T12:25:34.479Z,78.63
2023-12-04T12:28:06.209Z,78.67
2023-12-04T12:30:34.422Z,78.73
2023-12-04T12:33:01.787Z,78.69
2023-12-04T12:35:29.808Z,78.40
2023-12-04T12:37:57.501Z,78.46
2023-12-04T12:40:30.812Z,78.48
2023-12-04T12:43:08.635Z,78.58
2023-12-04T12:45:41.524Z,78.64
2023-12-04T12:48:17.642Z,78.60
2023-12-04T12:50:47.274Z,78.75
2023-12-04T12:53:15.727Z,78.63
2023-12-04T12:55:44.353Z,78.58
2023-12-04T12:58:13.945Z,78.65
2023-12-04T13:00:44.735Z,78.58
2023-12-04T13:03:20.427Z,78.47
2023-12-04T13:05:48.971Z,78.71
2023-12-04T13:08:16.966Z,78.81
2023-12-04T13:10:44.781Z,78.79
2023-12-04T13:13:14.148Z,78.75
2023-12-04T13:15:43.426Z,78.61
2023-12-04T13:18:12.128Z,78.76
2023-12-04T13:20:40.182Z,78.70
2023-12-04T13:23:07.958Z,78.82
2023-12-04T13:25:35.532Z,79.02
2023-12-04T13:28:03.040Z,79.00
2023-12-04T13:30:30.440Z,79.04
2023-12-04T13:32:57.988Z,79.12
2023-12-04T13:35:25.744Z,79.37
2023-12-04T13:37:57.646Z,79.39
2023-12-04T13:40:29.000Z,79.56
2023-12-04T13:43:15.226Z,79.65
2023-12-04T13:45:43.127Z,79.84
2023-12-04T13:48:11.692Z,79.98
2023-12-04T13:50:39.431Z,80.10
2023-12-04T13:53:08.658Z,80.20
2023-12-04T13:55:56.504Z,80.14
2023-12-04T13:58:43.884Z,80.04
2023-12-04T14:01:17.265Z,80.10
2023-12-04T14:03:46.361Z,80.25
2023-12-04T14:06:16.821Z,80.35
2023-12-04T14:08:45.696Z,80.51
2023-12-04T14:11:15.419Z,80.58
2023-12-04T14:13:43.084Z,80.65
2023-12-04T14:16:11.782Z,80.84
2023-12-04T14:18:39.802Z,80.99
2023-12-04T14:21:09.300Z,80.98
2023-12-04T14:23:36.848Z,81.07
2023-12-04T14:26:09.950Z,81.21
2023-12-04T14:28:43.130Z,81.28
2023-12-04T14:31:12.536Z,81.48
2023-12-04T14:33:43.331Z,81.65
2023-12-04T14:36:15.400Z,81.78
2023-12-04T14:38:43.829Z,81.94
2023-12-04T14:41:12.164Z,82.08
2023-12-04T14:43:40.120Z,82.19
2023-12-04T14:46:09.402Z,82.27
2023-12-04T14:48:41.359Z,82.31
2023-12-04T14:51:12.663Z,82.39
2023-12-04T14:53:54.904Z,82.44
2023-12-04T14:56:45.183Z,82.57
2023-12-04T14:59:33.065Z,82.68
2023-12-04T15:02:30.176Z,82.75
2023-12-04T15:05:10.714Z,82.75
2023-12-04T15:07:44.735Z,82.87
2023-12-04T15:10:32.937Z,82.96
2023-12-04T15:13:10.241Z,83.07
2023-12-04T15:15:41.042Z,83.16
2023-12-04T15:18:32.289Z,83.30
2023-12-04T15:21:00.402Z,83.36
2023-12-04T15:23:27.959Z,83.55
2023-12-04T15:25:55.826Z,83.60
2023-12-04T15:28:25.231Z,83.66
2023-12-04T15:30:56.874Z,83.85
2023-12-04T15:33:27.180Z,83.93
2023-12-04T15:35:55.697Z,84.03
2023-12-04T15:38:24.609Z,84.25
2023-12-04T15:40:53.382Z,84.30
2023-12-04T15:43:21.037Z,84.30
2023-12-04T15:45:49.484Z,84.32
2023-12-04T15:48:17.618Z,84.40
2023-12-04T15:50:46.407Z,84.50
2023-12-04T15:53:14.672Z,84.65
2023-12-04T15:55:42.511Z,84.73
2023-12-04T15:58:10.088Z,84.82
2023-12-04T16:00:39.741Z,84.91
2023-12-04T16:03:07.470Z,84.96
2023-12-04T16:05:36.108Z,84.97
2023-12-04T16:08:04.032Z,84.98
2023-12-04T16:10:32.187Z,85.00
2023-12-04T16:13:00.259Z,85.16
2023-12-04T16:15:27.873Z,85.19
2023-12-04T16:17:55.953Z,85.20
2023-12-04T16:20:23.360Z,85.23
2023-12-04T16:22:50.795Z,85.20
2023-12-04T16:25:19.300Z,85.27
2023-12-04T16:27:47.964Z,85.42
2023-12-04T16:30:15.885Z,85.33
2023-12-04T16:32:43.852Z,85.30
2023-12-04T16:35:12.351Z,85.30
2023-12-04T16:37:41.394Z,85.37
2023-12-04T16:40:11.033Z,85.50
2023-12-04T16:42:40.019Z,85.58
2023-12-04T16:45:09.250Z,85.65
2023-12-04T16:47:37.053Z,85.70
2023-12-04T16:50:05.998Z,85.70
2023-12-04T16:52:33.311Z,85.78
2023-12-04T16:55:00.802Z,85.91
2023-12-04T16:57:29.798Z,86.04
2023-12-04T16:59:57.532Z,86.10
2023-12-04T17:02:25.030Z,86.11
2023-12-04T17:04:52.642Z,86.20
2023-12-04T17:07:20.728Z,86.21
2023-12-04T17:09:48.421Z,86.29
2023-12-04T17:12:16.618Z,86.30
2023-12-04T17:14:44.525Z,86.29
2023-12-04T17:17:11.951Z,86.30
2023-12-04T17:19:39.417Z,86.30
2023-12-04T17:22:07.675Z,86.30
2023-12-04T17:24:35.197Z,86.26
2023-12-04T17:27:02.588Z,86.21
2023-12-04T17:29:30.648Z,86.20
2023-12-04T17:31:57.985Z,86.22
2023-12-04T17:34:25.729Z,86.29
2023-12-04T17:36:53.245Z,86.31
2023-12-04T17:39:21.063Z,86.36
2023-12-04T17:41:48.671Z,86.50
2023-12-04T17:44:17.239Z,86.50
2023-12-04T17:46:45.161Z,86.56
2023-12-04T17:49:14.593Z,86.60
2023-12-04T17:51:42.257Z,86.60
2023-12-04T17:54:09.790Z,86.60
2023-12-04T17:56:37.860Z,86.66
2023-12-04T17:59:05.673Z,86.70
2023-12-04T18:01:33.469Z,86.70
2023-12-04T18:04:03.234Z,86.80
2023-12-04T18:06:33.000Z,86.90
2023-12-04T18:09:00.542Z,86.90
2023-12-04T18:11:28.268Z,86.89
2023-12-04T18:13:56.519Z,86.97
2023-12-04T18:16:26.307Z,86.90
2023-12-04T18:18:55.502Z,86.98
2023-12-04T18:21:23.177Z,87.03
2023-12-04T18:23:50.651Z,87.11
2023-12-04T18:26:18.442Z,87.10
2023-12-04T18:28:48.925Z,87.15
2023-12-04T18:31:19.573Z,87.16
2023-12-04T18:33:48.538Z,87.16
2023-12-04T18:36:16.681Z,87.17
2023-12-04T18:38:56.012Z,87.18
2023-12-04T18:41:24.742Z,87.12
2023-12-04T18:43:55.297Z,87.10
2023-12-04T18:46:26.203Z,87.19
2023-12-04T18:48:55.264Z,87.20
2023-12-04T18:51:23.466Z,87.20
2023-12-04T18:53:51.245Z,87.21
2023-12-04T18:56:24.405Z,87.28
2023-12-04T18:58:53.835Z,87.30
2023-12-04T19:01:29.465Z,87.38
2023-12-04T19:04:04.241Z,87.36
2023-12-04T19:06:34.790Z,87.35
2023-12-04T19:09:02.345Z,87.45
2023-12-04T19:11:38.802Z,87.55
2023-12-04T19:14:11.280Z,87.65
2023-12-04T19:16:41.163Z,87.78
2023-12-04T19:19:16.074Z,87.80
2023-12-04T19:21:51.102Z,87.79
2023-12-04T19:24:21.582Z,87.72
2023-12-04T19:26:55.420Z,87.70
2023-12-04T19:29:29.932Z,87.70
2023-12-04T19:32:03.501Z,87.70
2023-12-04T19:34:33.915Z,87.70
2023-12-04T19:37:04.330Z,87.71
2023-12-04T19:39:33.944Z,87.69
2023-12-04T19:42:02.468Z,87.70
2023-12-04T19:44:31.083Z,87.69
2023-12-04T19:46:59.745Z,87.70
2023-12-04T19:49:27.879Z,87.70
2023-12-04T19:51:56.637Z,87.70
2023-12-04T19:54:24.826Z,87.70
2023-12-04T19:56:52.774Z,87.70
2023-12-04T19:59:21.349Z,87.70
2023-12-04T20:01:49.788Z,87.70
2023-12-04T20:04:18.461Z,87.71
2023-12-04T20:06:46.595Z,87.79
2023-12-04T20:09:14.953Z,87.86
2023-12-04T20:11:42.616Z,87.91
2023-12-04T20:14:10.578Z,88.02
2023-12-04T20:16:38.441Z,88.10
2023-12-04T20:19:06.446Z,88.11
2023-12-04T20:21:34.242Z,88.12
2023-12-04T20:24:01.990Z,88.15
2023-12-04T20:26:30.466Z,88.18
2023-12-04T20:28:58.506Z,88.17
2023-12-04T20:31:26.543Z,88.10
2023-12-04T20:33:54.269Z,88.11
2023-12-04T20:36:21.890Z,88.10
2023-12-04T20:38:51.649Z,88.10
2023-12-04T20:41:21.826Z,88.10
2023-12-04T20:43:49.648Z,88.06
2023-12-04T20:46:17.383Z,88.09
2023-12-04T20:48:45.732Z,88.06
2023-12-04T20:51:14.222Z,88.07
2023-12-04T20:53:41.863Z,88.10
2023-12-04T20:56:10.401Z,88.19
2023-12-04T20:58:37.844Z,88.19
2023-12-04T21:01:05.382Z,88.20
2023-12-04T21:03:33.672Z,88.20
2023-12-04T21:06:01.186Z,88.29
2023-12-04T21:08:28.642Z,88.37
2023-12-04T21:10:56.781Z,88.44
2023-12-04T21:13:24.654Z,88.43
2023-12-04T21:15:52.596Z,88.46
2023-12-04T21:18:20.472Z,88.43
2023-12-04T21:20:48.362Z,88.42
2023-12-04T21:23:16.556Z,88.40
2023-12-04T21:25:43.978Z,88.48
2023-12-04T21:28:11.782Z,88.50
2023-12-04T21:30:39.264Z,88.55
2023-12-04T21:33:07.272Z,88.62
2023-12-04T21:35:36.761Z,88.74
2023-12-04T21:38:04.453Z,88.79
2023-12-04T21:40:32.439Z,88.80
2023-12-04T21:43:00.236Z,88.91
2023-12-04T21:45:28.045Z,89.00
2023-12-04T21:47:56.592Z,89.05
2023-12-04T21:50:24.298Z,89.10
2023-12-04T21:52:52.381Z,89.18
2023-12-04T21:55:20.569Z,89.20
2023-12-04T21:57:48.263Z,89.24
2023-12-04T22:00:16.568Z,89.30
2023-12-04T22:02:46.083Z,89.34
2023-12-04T22:05:14.231Z,89.31
2023-12-04T22:07:41.880Z,89.30
2023-12-04T22:10:09.467Z,89.29
2023-12-04T22:12:36.860Z,89.23
2023-12-04T22:15:04.785Z,89.22
2023-12-04T22:17:32.426Z,89.20
2023-12-04T22:20:00.368Z,89.19
2023-12-04T22:22:28.030Z,89.17
2023-12-04T22:24:55.630Z,89.13
2023-12-04T22:27:23.054Z,89.10
2023-12-04T22:29:50.580Z,89.01
2023-12-04T22:32:18.364Z,89.00
2023-12-04T22:34:45.963Z,88.96
2023-12-04T22:37:13.300Z,88.90
2023-12-04T22:39:41.399Z,88.86
2023-12-04T22:42:09.030Z,88.80
2023-12-04T22:44:37.800Z,88.79
2023-12-04T22:47:05.756Z,88.72
2023-12-04T22:49:33.579Z,88.70
2023-12-04T22:52:01.202Z,88.70
2023-12-04T22:54:28.728Z,88.60
2023-12-04T22:56:57.345Z,88.55
2023-12-04T23:14:07.757Z,88.58
2023-12-04T23:17:55.803Z,88.54
2023-12-04T23:21:46.011Z,88.60
2023-12-04T23:25:36.855Z,88.57
2023-12-04T23:39:16.455Z,88.25
2023-12-04T23:43:14.498Z,88.05
2023-12-04T23:58:26.016Z,87.55
